Felchville, Vermont
Current Conditions -  °F | °C
As of 4:54 PM on Wednesday 22 Oct 2014 (Local Time) from KVSF Reporting Station
Light Rain Light Rain  
Wind Chill: 50°   Ceiling: 2700
Heat Index: 50°   Visibility: 6mi
Dew Point: 46°   Wind: 8mph
Humidity: 86%   Direction: 10°N
Pressure: 30.03"   Gusts: NA
Location:  43.4984°N, 72.5943°W
Report Text: KVSF 222054Z AUTO 01007KT 340V050 6SM -RA BR FEW019 BKN027 OVC032 10/08 A3003 RMK AO2 SLP174 P0001 60003 T01000078 55006
Loading
Personal Weather Stations






























Interactive Weather Map New forecast layout! Learn more

10-Day Weather Forecast

Advertisements
Track Severe Weather on mobile